Flight Track Log - Related Links

Times and Time Zones

All times are in EDT time to prevent confusion due to time zone crossing. See the CHQ4986 flight status page for this flight to view local times or setup timezone preferences in your user account.

Time Position Orientation Groundspeed Altitude Reporting Facility
EDT Latitude Longitude Course Direction KTS MPH feet Rate Location/Type
Sat 02:34:30 PM 42.7194 -73.8106 285° West 178 205 1,300  Level Boston Center
Sat 02:35:30 PM 42.7186 -73.8644 269° West 203 234 2,900 1,817 Climbing Boston Center
Sat 02:36:52 PM 42.7847 -73.9197 328° Northwest 216 249 5,600 1,986 Climbing Boston Center
Sat 02:37:00 PM 42.7516 -74.2632 281° West  Level Estimated
Sat 02:37:52 PM 42.8383 -73.9633 329° Northwest 216 249 7,600  Level Boston Center
Sat 02:38:00 PM 42.7819 -74.3710 291° West  Level FlightAware Approximate
Sat 02:38:50 PM 42.8878 -74.0014 331° Northwest 223 257 9,600  Level Boston Center
Sat 02:39:00 PM 42.8121 -74.4788 291° West  Level FlightAware Approximate
Sat 02:39:51 PM 42.9517 -74.0569 328° Northwest 235 270 10,800  Level Boston Center
Sat 02:40:00 PM 42.8117 -74.5942 285° West  Level Estimated
Sat 02:40:51 PM 42.9731 -74.1511 287° West 255 293 11,700  Level Boston Center
Sat 02:41:52 PM 42.9858 -74.2764 278° West 289 333 12,800 1,000 Climbing Boston Center
Sat 02:42:51 PM 42.9967 -74.3847 278° West 317 365 13,700 958 Climbing Boston Center
Sat 02:43:51 PM 43.0086 -74.5242 277° West 334 384 14,700 992 Climbing Boston Center
Sat 02:44:52 PM 43.0211 -74.6383 279° West 334 384 15,700 1,140 Climbing Boston Center
Sat 02:45:52 PM 43.0350 -74.7808 278° West 340 391 17,000 1,271 Climbing Boston Center
Sat 02:46:50 PM 43.0472 -74.8950 278° West 340 391 18,200 1,361 Climbing Boston Center
Sat 02:47:51 PM 43.0569 -75.0147 276° West 335 386 19,700 1,289 Climbing Boston Center
Sat 02:48:51 PM 43.0689 -75.1344 278° West 330 380 20,800 1,041 Climbing Boston Center
Sat 02:49:52 PM 43.0783 -75.2600 276° West 330 380 21,800 942 Climbing Boston Center
Sat 02:50:52 PM 43.0894 -75.3969 276° West 330 380 22,700 966 Climbing Boston Center
Sat 02:51:50 PM 43.1028 -75.5228 278° West 335 386 23,700 1,008 Climbing Boston Center
Sat 02:52:51 PM 43.1139 -75.6486 277° West 335 386 24,700 992 Climbing Boston Center
Sat 02:53:51 PM 43.1250 -75.7744 277° West 335 386 25,700 1,008 Climbing Boston Center
Sat 02:54:50 PM 43.1358 -75.9003 277° West 330 380 26,700 655 Climbing Boston Center
Sat 02:55:50 PM 43.1464 -76.0261 277° West 335 386 27,000 150 Climbing Boston Center
Sat 02:56:50 PM 43.1586 -76.1633 277° West 346 398 27,000 248 Level Boston Center
Sat 02:57:51 PM 43.1603 -76.3031 271° West 362 417 27,500 690 Climbing Boston Center
Sat 02:58:43 PM 43.1586 -76.4069 269° West 367 422 28,300 789 Climbing Cleveland Center
Sat 02:59:45 PM 43.1581 -76.5406 270° West 356 410 29,000 780 Climbing Cleveland Center
Sat 03:00:46 PM 43.1572 -76.6753 270° West 352 405 29,900 488 Climbing Cleveland Center
Sat 03:01:48 PM 43.1561 -76.8131 269° West 355 409 30,000 48 Climbing Cleveland Center
Sat 03:02:50 PM 43.1542 -76.9861 269° West 378 435 30,000  Level Cleveland Center
Sat 03:04:48 PM 43.1333 -77.2500 264° West 390 449 30,000  Level Toronto Center
Sat 03:05:48 PM 43.1333 -77.4000 270° West 390 449 30,000  Level Toronto Center
Sat 03:06:48 PM 43.1500 -77.5500 279° West 390 449 30,000  Level Toronto Center
Sat 03:07:58 PM 43.1444 -77.7289 268° West 394 453 30,000  Level Cleveland Center
Sat 03:09:00 PM 43.1411 -77.9078 269° West 395 455 30,000  Level Cleveland Center
Sat 03:10:01 PM 43.1389 -78.0578 269° West 396 456 30,000  Level Cleveland Center
Sat 03:11:03 PM 43.1356 -78.2083 268° West 399 459 30,000  Level Cleveland Center
Sat 03:12:04 PM 43.1331 -78.3569 269° West 394 453 30,000  Level Cleveland Center
Sat 03:13:06 PM 43.1292 -78.5061 268° West 394 453 30,000  Level Cleveland Center
Sat 03:14:08 PM 43.1242 -78.6592 267° West 403 464 30,000  Level Cleveland Center
Sat 03:15:09 PM 43.1200 -78.8372 268° West 393 452 30,000  Level Cleveland Center
Sat 03:15:48 PM 43.1167 -78.9000 266° West 390 449 30,000  Level Toronto Center
Sat 03:16:48 PM 43.1000 -79.0667 262° West 390 449 30,000  Level Toronto Center
Sat 03:17:48 PM 43.1000 -79.2000 270° West 390 449 30,000  Level Toronto Center
Sat 03:18:48 PM 43.1000 -79.3667 270° West 390 449 30,000  Level Toronto Center
Sat 03:19:48 PM 43.1000 -79.5000 270° West 400 460 30,000  Level Toronto Center
Sat 03:20:48 PM 43.0833 -79.6500 261° West 400 460 30,000  Level Toronto Center
Sat 03:21:48 PM 43.0833 -79.8167 270° West 400 460 30,000  Level Toronto Center
Sat 03:22:48 PM 43.0833 -79.9833 270° West 400 460 30,000  Level Toronto Center
Sat 03:23:48 PM 43.0667 -80.1167 260° West 390 449 30,000  Level Toronto Center
Sat 03:24:48 PM 43.0667 -80.2500 270° West 390 449 30,000  Level Toronto Center
Sat 03:25:48 PM 43.0667 -80.4167 270° West 390 449 30,000  Level Toronto Center
Sat 03:26:48 PM 43.0500 -80.5667 261° West 400 460 30,000  Level Toronto Center
Sat 03:27:48 PM 43.0500 -80.7000 270° West 390 449 30,000  Level Toronto Center
Sat 03:28:48 PM 43.0333 -80.8667 262° West 390 449 30,000  Level Toronto Center
Sat 03:29:48 PM 43.0167 -81.0000 260° West 390 449 30,000  Level Toronto Center
Sat 03:30:48 PM 43.0167 -81.1667 270° West 400 460 30,000  Level Toronto Center
Sat 03:31:48 PM 43.0167 -81.3167 270° West 400 460 30,000  Level Toronto Center
Sat 03:32:48 PM 43.0167 -81.4500 270° West 400 460 30,000  Level Toronto Center
Sat 03:33:48 PM 43.0167 -81.6167 270° West 400 460 30,000  Level Toronto Center
Sat 03:34:48 PM 43.0167 -81.7500 270° West 400 460 30,000  Level Toronto Center
Sat 03:35:48 PM 43.0000 -81.9167 262° West 400 460 30,000  Level Toronto Center
Sat 03:36:48 PM 43.0000 -82.0667 270° West 400 460 30,000  Level Toronto Center
Sat 03:37:48 PM 43.0000 -82.2333 270° West 400 460 30,000  Level Toronto Center
Sat 03:38:48 PM 43.0000 -82.3667 270° West 400 460 30,000  Level Toronto Center
Sat 03:39:48 PM 43.0000 -82.5333 270° West 400 460 30,000  Level Toronto Center
Sat 03:40:48 PM 42.9833 -82.6833 261° West 400 460 30,000  Level Toronto Center
Sat 03:41:48 PM 42.9833 -82.8167 270° West 410 472 30,000  Level Toronto Center
Sat 03:42:48 PM 42.9833 -82.9833 270° West 410 472 30,000  Level Toronto Center
Sat 03:43:57 PM 42.9864 -83.1442 272° West 405 466 30,000  Level Cleveland Center
Sat 03:44:58 PM 42.9833 -83.2972 268° West 406 467 30,000  Level Cleveland Center
Sat 03:46:00 PM 42.9761 -83.4803 267° West 406 467 30,000  Level Cleveland Center
Sat 03:47:02 PM 42.9706 -83.6328 267° West 404 465 30,000  Level Cleveland Center
Sat 03:48:04 PM 42.9622 -83.7861 266° West 408 470 30,000  Level Cleveland Center
Sat 03:49:05 PM 42.9469 -83.9378 262° West 409 471 30,000  Level Cleveland Center
Sat 03:50:07 PM 42.9333 -84.0894 263° West 406 467 30,000  Level Cleveland Center
Sat 03:51:09 PM 42.9186 -84.2431 263° West 410 472 30,000  Level Cleveland Center
Sat 03:52:11 PM 42.9019 -84.4083 262° West 409 471 30,000  Level Cleveland Center
Sat 03:53:13 PM 42.8864 -84.5619 262° West 409 471 30,000  Level Cleveland Center
Sat 03:54:15 PM 42.8681 -84.7453 262° West 408 470 30,000  Level Cleveland Center
Sat 03:54:48 PM 42.8500 -84.8167 251° West 410 472 30,000  Level Toronto Center
Sat 03:55:45 PM 42.8444 -84.9606 267° West 410 472 30,000  Level Chicago Center
Sat 03:56:47 PM 42.8283 -85.1125 262° West 407 468 30,000  Level Chicago Center
Sat 03:57:49 PM 42.8119 -85.2664 262° West 411 473 30,000 -732 Level Chicago Center
Sat 03:58:50 PM 42.7953 -85.4183 262° West 407 468 28,500 -1,902 Descending Chicago Center
Sat 03:59:52 PM 42.7664 -85.6069 258° West 422 486 26,100 -1,694 Descending Chicago Center
Sat 04:00:54 PM 42.7400 -85.7544 256° West 406 467 25,000 -1,258 Descending Chicago Center
Sat 04:01:56 PM 42.7175 -85.8761 256° West 340 391 23,500 -1,645 Descending Chicago Center
Sat 04:02:58 PM 42.6967 -85.9925 256° West 322 371 21,600 -1,561 Descending Chicago Center
Sat 04:03:59 PM 42.6769 -86.1028 256° West 306 352 20,300 -780 Descending Chicago Center
Sat 04:05:01 PM 42.6558 -86.2156 256° West 305 351 20,000 -629 Descending Chicago Center
Sat 04:06:03 PM 42.6319 -86.3428 256° West 336 387 19,000 -1,452 Descending Chicago Center
Sat 04:07:05 PM 42.6064 -86.4789 256° West 367 422 17,000 -2,049 Descending Chicago Center
Sat 04:08:06 PM 42.5753 -86.6406 255° West 369 425 14,800 -1,805 Descending Chicago Center
Sat 04:09:08 PM 42.5478 -86.7769 255° West 375 432 13,300 -1,645 Descending Chicago Center
Sat 04:10:10 PM 42.5114 -86.9036 249° West 366 421 11,400 -1,463 Descending Chicago Center
Sat 04:11:11 PM 42.4794 -87.0242 250° West 349 402 10,300 -927 Descending Chicago Center
Sat 04:12:13 PM 42.4489 -87.1297 249° West 310 357 9,500 -1,171 Descending Chicago Center
Sat 04:13:14 PM 42.4233 -87.2219 249° West 274 315 7,900 -1,659 Descending Chicago Center
Sat 04:14:16 PM 42.3939 -87.3108 246° West 267 307 6,100 -919 Descending Chicago Center
Sat 04:15:18 PM 42.3150 -87.3444 197° South 252 290 6,000 -49 Descending Chicago Center
Sat 04:16:19 PM 42.2464 -87.3733 197° South 258 297 6,000 -293 Level Chicago Center
Sat 04:17:21 PM 42.1764 -87.3925 191° South 258 297 5,400 -871 Descending Chicago Center
Sat 04:18:23 PM 42.1072 -87.4039 187° South 253 291 4,200 -683 Descending Chicago Center
Sat 04:19:24 PM 42.0392 -87.4167 188° South 249 287 4,000 -98 Descending Chicago Center
Sat 04:20:26 PM 42.0044 -87.4897 237° Southwest 260 299 4,000  Level Chicago Center
Sat 04:21:28 PM 42.0014 -87.6033 268° West 256 295 4,000 -60 Level Chicago Center
Sat 04:22:06 PM 42.0000 -87.6667 268° West 256 295 3,900 -808 Descending Chicago TRACON
Sat 04:23:12 PM 42.0000 -87.7667 270° West 227 261 2,600 -1,087 Descending Chicago TRACON
Sat 04:24:13 PM 42.0000 -87.8333 270° West 180 207 1,600 -984 Descending Chicago TRACON

Login

Don't have an account? Register now (free) for customized features, flight alerts, and more!